Vega Bulk — 3FYI4 — position and weather

sailwx.info

Track history (hours):
 
Tides and Currents Weather Stations Pressure Air Temp Water Temp Dewpoint Dewpoint Depression Visibility Wind Speed Wind Dir Waves Ship Positions

Vega Bulk

Last reported at 2017-Sep-04 08:49 UTC. Time now 2017-Sep-21 16:15 UTC.
Position N 27°44' W 015°15'.
Warning: this ship's position is 17 days out of date.

Length 84 m; draft 7.4 m.

Type: Ship. MMSI: 354187000.

Date/timePositionNaut miles runAvg speedWind from/ knotsBaromVisibWave heightAir tempDewpointWater temp
2017-Sep-04 08:49N 27°44' W 015°15'4 9.1
2017-Sep-04 08:24N 27°47' W 015°13'3 8.8
2017-Sep-04 08:00N 27°50' W 015°10'4 8.3
2017-Sep-04 07:30N 27°53' W 015°08'4 8.2
2017-Sep-04 07:00N 27°57' W 015°06'4 8.1
2017-Sep-04 06:30N 28°01' W 015°04'4 8.8
2017-Sep-04 06:01N 28°05' W 015°03'4 8.8
2017-Sep-04 05:31N 28°09' W 015°01'5 9.0
2017-Sep-04 05:00N 28°13' W 014°59'5 9.0
2017-Sep-04 04:30N 28°17' W 014°57'5 9.5
2017-Sep-04 03:59N 28°22' W 014°55'13 9.1
2017-Sep-04 02:37N 28°34' W 014°49'  
2017-Sep-01 21:12N 35°50' W 010°57'118 8.3
2017-Sep-01 07:00N 37°37' W 009°57'4 8.2
2017-Sep-01 06:30N 37°41' W 009°55'4 8.4
2017-Sep-01 05:59N 37°45' W 009°53'4 8.9
2017-Sep-01 05:29N 37°49' W 009°50'9 8.9
2017-Sep-01 04:31N 37°57' W 009°45'0 8.0
2017-Sep-01 04:30N 37°57' W 009°45'4 8.8
2017-Sep-01 04:00N 38°01' W 009°42'4 8.8
2017-Sep-01 03:31N 38°05' W 009°41'7 8.9
2017-Sep-01 02:46N 38°11' W 009°38'3 8.9
2017-Sep-01 02:27N 38°14' W 009°37'4 8.3
2017-Sep-01 02:00N 38°17' W 009°35'4 8.1
2017-Sep-01 01:31N 38°21' W 009°33'4 8.5
2017-Sep-01 01:01N 38°25' W 009°31'4 8.7
2017-Sep-01 00:30N 38°29' W 009°29'4 9.0
2017-Sep-01 00:01N 38°33' W 009°26'4 8.6
2017-Aug-31 23:30N 38°37' W 009°24'4 8.9
2017-Aug-31 23:00N 38°39' W 009°20'4 7.9
2017-Aug-31 22:29N 38°41' W 009°15'4 7.9
2017-Aug-31 22:00N 38°42' W 009°10'4 0.1
2017-Aug-30 05:55N 38°44' W 009°06'3 7.2
2017-Aug-30 05:30N 38°42' W 009°09'4 8.3
2017-Aug-30 05:00N 38°41' W 009°14'5 9.0
2017-Aug-30 04:31N 38°39' W 009°19'4 8.9
2017-Aug-30 04:00N 38°36' W 009°24'5 9.0
2017-Aug-30 03:30N 38°32' W 009°26'4 8.6
2017-Aug-30 03:00N 38°28' W 009°29'4 8.7
2017-Aug-30 02:30N 38°24' W 009°31'4 8.4
2017-Aug-30 02:00N 38°21' W 009°33'4 8.4
2017-Aug-30 01:29N 38°17' W 009°36'4 8.0
2017-Aug-30 01:00N 38°13' W 009°38'  
2017-Aug-26 14:43N 28°23' W 015°15'40 2.7
2017-Aug-25 23:57N 27°57' W 014°40'11 9.2
2017-Aug-25 22:42N 27°50' W 014°30'2 8.9
2017-Aug-25 22:30N 27°49' W 014°29'7 9.1
2017-Aug-25 21:46N 27°45' W 014°23'3 9.4
2017-Aug-25 21:30N 27°43' W 014°21'5 9.7
2017-Aug-25 21:00N 27°40' W 014°17'5 9.6
2017-Aug-25 20:30N 27°36' W 014°13'13 9.6
2017-Aug-25 19:11N 27°28' W 014°02'3 9.4
2017-Aug-25 18:55N 27°26' W 014°00'8 8.9
2017-Aug-25 18:01N 27°22' W 013°53'0 8.9
2017-Aug-25 18:00N 27°21' W 013°53'27 8.6
2017-Aug-25 14:53N 27°05' W 013°29'3 6.7
2017-Aug-25 14:28N 27°05' W 013°26'0 0.0
2017-Aug-25 09:19N 27°05' W 013°26'0 0.0
2017-Aug-25 08:59N 27°05' W 013°26'  
Track history (hours):
 
Tides and Currents Weather Stations Pressure Air Temp Water Temp Dewpoint Dewpoint Depression Visibility Wind Speed Wind Dir Waves Ship Positions

Vega Bulk

Last reported at 2017-Sep-04 08:49 UTC. Time now 2017-Sep-21 16:15 UTC.
Position N 27°44' W 015°15'.
Warning: this ship's position is 17 days out of date.

Length 84 m; draft 7.4 m.

Type: Ship. MMSI: 354187000.

Date/timePositionNaut miles runAvg speedWind from/ knotsBaromVisibWave heightAir tempDewpointWater temp
2017-Sep-04 08:49N 27°44' W 015°15'4 9.1
2017-Sep-04 08:24N 27°47' W 015°13'3 8.8
2017-Sep-04 08:00N 27°50' W 015°10'4 8.3
2017-Sep-04 07:30N 27°53' W 015°08'4 8.2
2017-Sep-04 07:00N 27°57' W 015°06'4 8.1
2017-Sep-04 06:30N 28°01' W 015°04'4 8.8
2017-Sep-04 06:01N 28°05' W 015°03'4 8.8
2017-Sep-04 05:31N 28°09' W 015°01'5 9.0
2017-Sep-04 05:00N 28°13' W 014°59'5 9.0
2017-Sep-04 04:30N 28°17' W 014°57'5 9.5
2017-Sep-04 03:59N 28°22' W 014°55'13 9.1
2017-Sep-04 02:37N 28°34' W 014°49'  
2017-Sep-01 21:12N 35°50' W 010°57'118 8.3
2017-Sep-01 07:00N 37°37' W 009°57'4 8.2
2017-Sep-01 06:30N 37°41' W 009°55'4 8.4
2017-Sep-01 05:59N 37°45' W 009°53'4 8.9
2017-Sep-01 05:29N 37°49' W 009°50'9 8.9
2017-Sep-01 04:31N 37°57' W 009°45'0 8.0
2017-Sep-01 04:30N 37°57' W 009°45'4 8.8
2017-Sep-01 04:00N 38°01' W 009°42'4 8.8
2017-Sep-01 03:31N 38°05' W 009°41'7 8.9
2017-Sep-01 02:46N 38°11' W 009°38'3 8.9
2017-Sep-01 02:27N 38°14' W 009°37'4 8.3
2017-Sep-01 02:00N 38°17' W 009°35'4 8.1
2017-Sep-01 01:31N 38°21' W 009°33'4 8.5
2017-Sep-01 01:01N 38°25' W 009°31'4 8.7
2017-Sep-01 00:30N 38°29' W 009°29'4 9.0
2017-Sep-01 00:01N 38°33' W 009°26'4 8.6
2017-Aug-31 23:30N 38°37' W 009°24'4 8.9
2017-Aug-31 23:00N 38°39' W 009°20'4 7.9
2017-Aug-31 22:29N 38°41' W 009°15'4 7.9
2017-Aug-31 22:00N 38°42' W 009°10'4 0.1
2017-Aug-30 05:55N 38°44' W 009°06'3 7.2
2017-Aug-30 05:30N 38°42' W 009°09'4 8.3
2017-Aug-30 05:00N 38°41' W 009°14'5 9.0
2017-Aug-30 04:31N 38°39' W 009°19'4 8.9
2017-Aug-30 04:00N 38°36' W 009°24'5 9.0
2017-Aug-30 03:30N 38°32' W 009°26'4 8.6
2017-Aug-30 03:00N 38°28' W 009°29'4 8.7
2017-Aug-30 02:30N 38°24' W 009°31'4 8.4
2017-Aug-30 02:00N 38°21' W 009°33'4 8.4
2017-Aug-30 01:29N 38°17' W 009°36'4 8.0
2017-Aug-30 01:00N 38°13' W 009°38'  
2017-Aug-26 14:43N 28°23' W 015°15'40 2.7
2017-Aug-25 23:57N 27°57' W 014°40'11 9.2
2017-Aug-25 22:42N 27°50' W 014°30'2 8.9
2017-Aug-25 22:30N 27°49' W 014°29'7 9.1
2017-Aug-25 21:46N 27°45' W 014°23'3 9.4
2017-Aug-25 21:30N 27°43' W 014°21'5 9.7
2017-Aug-25 21:00N 27°40' W 014°17'5 9.6
2017-Aug-25 20:30N 27°36' W 014°13'13 9.6
2017-Aug-25 19:11N 27°28' W 014°02'3 9.4
2017-Aug-25 18:55N 27°26' W 014°00'8 8.9
2017-Aug-25 18:01N 27°22' W 013°53'0 8.9
2017-Aug-25 18:00N 27°21' W 013°53'27 8.6
2017-Aug-25 14:53N 27°05' W 013°29'3 6.7
2017-Aug-25 14:28N 27°05' W 013°26'0 0.0
2017-Aug-25 09:19N 27°05' W 013°26'0 0.0
2017-Aug-25 08:59N 27°05' W 013°26'  

Dump ship's entire track history